sensor_id;sensor_type;location;lat;lon;timestamp;pressure;altitude;pressure_sealevel;temperature;humidity
36932;BME280;22847;42.654;23.370;2023-05-25T00:00:07;94623.91;;;19.17;63.21
36932;BME280;22847;42.654;23.370;2023-05-25T00:02:34;94625.34;;;19.13;63.47
36932;BME280;22847;42.654;23.370;2023-05-25T00:04:59;94383.22;;;17.22;64.96
36932;BME280;22847;42.654;23.370;2023-05-25T00:07:25;94632.34;;;18.93;64.58
36932;BME280;22847;42.654;23.370;2023-05-25T00:09:51;94630.41;;;18.73;64.74
36932;BME280;22847;42.654;23.370;2023-05-25T00:12:16;94637.75;;;18.78;64.83
36932;BME280;22847;42.654;23.370;2023-05-25T00:14:41;94637.28;;;19.02;64.80
36932;BME280;22847;42.654;23.370;2023-05-25T00:17:07;94631.75;;;18.97;65.11
36932;BME280;22847;42.654;23.370;2023-05-25T00:19:35;94652.72;;;18.99;65.01
36932;BME280;22847;42.654;23.370;2023-05-25T00:22:00;94577.75;;;18.59;65.27
36932;BME280;22847;42.654;23.370;2023-05-25T00:24:27;94628.00;;;18.79;65.52
36932;BME280;22847;42.654;23.370;2023-05-25T00:26:54;94665.44;;;18.82;65.73
36932;BME280;22847;42.654;23.370;2023-05-25T00:29:20;94644.25;;;18.76;66.37
36932;BME280;22847;42.654;23.370;2023-05-25T00:31:45;94588.16;;;18.39;66.22
36932;BME280;22847;42.654;23.370;2023-05-25T00:34:11;94350.19;;;16.91;66.09
36932;BME280;22847;42.654;23.370;2023-05-25T00:36:36;94644.06;;;18.77;66.39
36932;BME280;22847;42.654;23.370;2023-05-25T00:39:01;94652.34;;;18.67;66.82
36932;BME280;22847;42.654;23.370;2023-05-25T00:41:27;94640.97;;;18.67;66.97
36932;BME280;22847;42.654;23.370;2023-05-25T00:43:52;94582.56;;;18.21;67.19
36932;BME280;22847;42.654;23.370;2023-05-25T00:46:18;94640.19;;;18.45;66.78
36932;BME280;22847;42.654;23.370;2023-05-25T00:48:44;94628.00;;;18.51;66.87
36932;BME280;22847;42.654;23.370;2023-05-25T00:51:10;94650.47;;;18.61;66.82
36932;BME280;22847;42.654;23.370;2023-05-25T00:53:38;94626.75;;;18.40;66.55
36932;BME280;22847;42.654;23.370;2023-05-25T00:56:13;94658.75;;;18.31;67.72
36932;BME280;22847;42.654;23.370;2023-05-25T00:58:41;94683.19;;;18.39;67.52
36932;BME280;22847;42.654;23.370;2023-05-25T01:01:08;94649.28;;;18.43;67.48
36932;BME280;22847;42.654;23.370;2023-05-25T01:03:38;94497.31;;;17.44;67.96
36932;BME280;22847;42.654;23.370;2023-05-25T01:06:08;94656.84;;;18.46;67.57
36932;BME280;22847;42.654;23.370;2023-05-25T01:08:38;94534.25;;;17.65;67.45
36932;BME280;22847;42.654;23.370;2023-05-25T01:11:05;94667.22;;;17.98;68.05
36932;BME280;22847;42.654;23.370;2023-05-25T01:13:33;94669.97;;;18.11;67.25
36932;BME280;22847;42.654;23.370;2023-05-25T01:15:59;94691.44;;;18.29;66.27
36932;BME280;22847;42.654;23.370;2023-05-25T01:18:25;94665.25;;;18.28;67.10
36932;BME280;22847;42.654;23.370;2023-05-25T01:21:04;94605.94;;;17.96;66.62
36932;BME280;22847;42.654;23.370;2023-05-25T01:23:42;94655.28;;;18.23;67.19
36932;BME280;22847;42.654;23.370;2023-05-25T01:26:12;94628.81;;;18.17;66.12
36932;BME280;22847;42.654;23.370;2023-05-25T01:28:41;94511.72;;;17.41;66.16
36932;BME280;22847;42.654;23.370;2023-05-25T01:31:08;94644.91;;;18.28;65.88
36932;BME280;22847;42.654;23.370;2023-05-25T01:33:35;94647.22;;;18.10;66.29
36932;BME280;22847;42.654;23.370;2023-05-25T01:36:02;94644.78;;;17.45;67.98
36932;BME280;22847;42.654;23.370;2023-05-25T01:38:27;94685.34;;;17.65;67.41
36932;BME280;22847;42.654;23.370;2023-05-25T01:40:52;94642.44;;;17.57;67.91
36932;BME280;22847;42.654;23.370;2023-05-25T01:43:18;94624.09;;;17.27;68.58
36932;BME280;22847;42.654;23.370;2023-05-25T01:45:44;94603.63;;;17.29;68.90
36932;BME280;22847;42.654;23.370;2023-05-25T01:50:59;94626.84;;;17.55;68.15
36932;BME280;22847;42.654;23.370;2023-05-25T01:53:34;94629.97;;;17.65;68.70
36932;BME280;22847;42.654;23.370;2023-05-25T01:56:08;94615.81;;;17.66;68.55
36932;BME280;22847;42.654;23.370;2023-05-25T01:58:41;94624.81;;;17.57;69.11
36932;BME280;22847;42.654;23.370;2023-05-25T02:01:08;94604.72;;;17.56;68.91
36932;BME280;22847;42.654;23.370;2023-05-25T02:03:35;94633.09;;;17.69;68.83
36932;BME280;22847;42.654;23.370;2023-05-25T02:06:01;94640.00;;;17.55;69.71
36932;BME280;22847;42.654;23.370;2023-05-25T02:08:26;94617.84;;;17.50;69.60
36932;BME280;22847;42.654;23.370;2023-05-25T02:10:52;94626.09;;;17.25;70.66
36932;BME280;22847;42.654;23.370;2023-05-25T02:13:17;94628.53;;;16.91;72.49
36932;BME280;22847;42.654;23.370;2023-05-25T02:15:43;94659.66;;;17.02;72.61
36932;BME280;22847;42.654;23.370;2023-05-25T02:18:08;94615.31;;;16.70;73.20
36932;BME280;22847;42.654;23.370;2023-05-25T02:20:35;94669.25;;;16.74;73.08
36932;BME280;22847;42.654;23.370;2023-05-25T02:23:01;94635.56;;;16.69;71.41
36932;BME280;22847;42.654;23.370;2023-05-25T02:25:26;94490.44;;;15.70;71.24
36932;BME280;22847;42.654;23.370;2023-05-25T02:27:52;94625.00;;;16.55;71.12
36932;BME280;22847;42.654;23.370;2023-05-25T02:30:17;94675.13;;;17.05;69.46
36932;BME280;22847;42.654;23.370;2023-05-25T02:32:43;94689.34;;;17.25;68.20
36932;BME280;22847;42.654;23.370;2023-05-25T02:35:08;94660.31;;;17.40;67.68
36932;BME280;22847;42.654;23.370;2023-05-25T02:37:34;94637.97;;;17.36;68.07
36932;BME280;22847;42.654;23.370;2023-05-25T02:39:59;94548.66;;;16.84;67.62
36932;BME280;22847;42.654;23.370;2023-05-25T02:42:25;94685.31;;;17.59;67.06
36932;BME280;22847;42.654;23.370;2023-05-25T02:44:50;94501.28;;;16.40;67.59
36932;BME280;22847;42.654;23.370;2023-05-25T02:47:16;94690.94;;;17.56;67.76
36932;BME280;22847;42.654;23.370;2023-05-25T02:49:45;94654.06;;;17.41;67.26
36932;BME280;22847;42.654;23.370;2023-05-25T02:52:11;94684.31;;;17.60;67.09
36932;BME280;22847;42.654;23.370;2023-05-25T02:54:36;94695.72;;;17.52;67.26
36932;BME280;22847;42.654;23.370;2023-05-25T02:57:02;94680.97;;;17.36;68.25
36932;BME280;22847;42.654;23.370;2023-05-25T02:59:29;94574.06;;;16.77;68.34
36932;BME280;22847;42.654;23.370;2023-05-25T03:01:54;94530.88;;;16.57;68.01
36932;BME280;22847;42.654;23.370;2023-05-25T03:04:19;94689.28;;;17.55;68.23
36932;BME280;22847;42.654;23.370;2023-05-25T03:06:46;94549.22;;;16.65;68.14
36932;BME280;22847;42.654;23.370;2023-05-25T03:09:12;94580.06;;;16.85;68.14
36932;BME280;22847;42.654;23.370;2023-05-25T03:11:38;94554.13;;;16.68;68.24
36932;BME280;22847;42.654;23.370;2023-05-25T03:14:04;94691.97;;;17.40;68.35
36932;BME280;22847;42.654;23.370;2023-05-25T03:16:29;94671.16;;;17.30;68.79
36932;BME280;22847;42.654;23.370;2023-05-25T03:18:55;94577.00;;;16.67;68.97
36932;BME280;22847;42.654;23.370;2023-05-25T03:21:21;94537.59;;;16.44;68.75
36932;BME280;22847;42.654;23.370;2023-05-25T03:23:47;94528.19;;;16.21;69.24
36932;BME280;22847;42.654;23.370;2023-05-25T03:26:13;94694.56;;;17.19;69.18
36932;BME280;22847;42.654;23.370;2023-05-25T03:28:38;94667.00;;;17.21;68.72
36932;BME280;22847;42.654;23.370;2023-05-25T03:31:03;94695.97;;;17.36;67.94
36932;BME280;22847;42.654;23.370;2023-05-25T03:33:29;94670.56;;;17.14;67.72
36932;BME280;22847;42.654;23.370;2023-05-25T03:35:54;94698.97;;;17.33;66.85
36932;BME280;22847;42.654;23.370;2023-05-25T03:38:22;94660.28;;;17.19;66.09
36932;BME280;22847;42.654;23.370;2023-05-25T03:40:48;94709.13;;;17.51;66.85
36932;BME280;22847;42.654;23.370;2023-05-25T03:43:13;94711.94;;;17.49;66.73
36932;BME280;22847;42.654;23.370;2023-05-25T03:45:39;94543.41;;;16.55;66.18
36932;BME280;22847;42.654;23.370;2023-05-25T03:48:05;94701.13;;;17.59;66.18
36932;BME280;22847;42.654;23.370;2023-05-25T03:50:31;94707.09;;;17.53;65.75
36932;BME280;22847;42.654;23.370;2023-05-25T03:52:56;94695.72;;;17.67;65.98
36932;BME280;22847;42.654;23.370;2023-05-25T03:55:22;94715.44;;;17.71;66.29
36932;BME280;22847;42.654;23.370;2023-05-25T03:57:47;94568.09;;;17.04;65.58
36932;BME280;22847;42.654;23.370;2023-05-25T04:00:13;94690.66;;;17.15;67.28
36932;BME280;22847;42.654;23.370;2023-05-25T04:02:39;94695.53;;;17.18;67.10
36932;BME280;22847;42.654;23.370;2023-05-25T04:05:05;94714.94;;;17.61;66.06
36932;BME280;22847;42.654;23.370;2023-05-25T04:07:31;94711.69;;;17.59;66.26
36932;BME280;22847;42.654;23.370;2023-05-25T04:09:56;94667.31;;;16.68;68.06
36932;BME280;22847;42.654;23.370;2023-05-25T04:12:26;94724.75;;;17.02;68.18
36932;BME280;22847;42.654;23.370;2023-05-25T04:14:51;94728.09;;;17.61;66.62
36932;BME280;22847;42.654;23.370;2023-05-25T04:17:17;94734.13;;;17.91;64.34
36932;BME280;22847;42.654;23.370;2023-05-25T04:19:43;94712.69;;;17.79;64.75
36932;BME280;22847;42.654;23.370;2023-05-25T04:22:09;94745.69;;;18.53;62.10
36932;BME280;22847;42.654;23.370;2023-05-25T04:24:34;94674.81;;;18.08;61.80
36932;BME280;22847;42.654;23.370;2023-05-25T04:27:00;94755.28;;;18.61;61.25
36932;BME280;22847;42.654;23.370;2023-05-25T04:29:26;94720.28;;;19.14;59.74
36932;BME280;22847;42.654;23.370;2023-05-25T04:31:52;94733.56;;;18.93;60.08
36932;BME280;22847;42.654;23.370;2023-05-25T04:34:19;94746.56;;;18.88;60.90
36932;BME280;22847;42.654;23.370;2023-05-25T04:36:47;94748.81;;;18.63;61.98
36932;BME280;22847;42.654;23.370;2023-05-25T04:39:13;94758.28;;;18.79;61.71
36932;BME280;22847;42.654;23.370;2023-05-25T04:41:40;94737.69;;;19.02;60.99
36932;BME280;22847;42.654;23.370;2023-05-25T04:44:07;94752.63;;;19.51;59.61
36932;BME280;22847;42.654;23.370;2023-05-25T04:46:32;94744.88;;;20.10;57.88
36932;BME280;22847;42.654;23.370;2023-05-25T04:49:02;94636.72;;;19.87;57.18
36932;BME280;22847;42.654;23.370;2023-05-25T04:51:29;94749.84;;;20.92;55.49
36932;BME280;22847;42.654;23.370;2023-05-25T04:53:54;94602.50;;;20.52;54.39
36932;BME280;22847;42.654;23.370;2023-05-25T04:56:20;94595.28;;;20.85;53.44
36932;BME280;22847;42.654;23.370;2023-05-25T04:58:49;94741.47;;;22.17;52.03
36932;BME280;22847;42.654;23.370;2023-05-25T05:01:16;94734.41;;;21.98;52.34
36932;BME280;22847;42.654;23.370;2023-05-25T05:03:41;94721.75;;;22.31;50.81
36932;BME280;22847;42.654;23.370;2023-05-25T05:06:07;94716.88;;;21.90;51.45
36932;BME280;22847;42.654;23.370;2023-05-25T05:08:32;94733.22;;;21.43;53.66
36932;BME280;22847;42.654;23.370;2023-05-25T05:10:58;94733.41;;;22.30;51.46
36932;BME280;22847;42.654;23.370;2023-05-25T05:13:23;94495.25;;;21.12;50.89
36932;BME280;22847;42.654;23.370;2023-05-25T05:15:49;94700.97;;;22.78;49.92
36932;BME280;22847;42.654;23.370;2023-05-25T05:18:15;94720.25;;;23.34;48.89
36932;BME280;22847;42.654;23.370;2023-05-25T05:20:41;94726.03;;;23.49;48.87
36932;BME280;22847;42.654;23.370;2023-05-25T05:23:06;94514.47;;;22.19;48.99
36932;BME280;22847;42.654;23.370;2023-05-25T05:25:32;94734.03;;;23.97;48.22
36932;BME280;22847;42.654;23.370;2023-05-25T05:27:57;94762.88;;;24.00;48.80
36932;BME280;22847;42.654;23.370;2023-05-25T05:30:22;94632.59;;;23.69;47.12
36932;BME280;22847;42.654;23.370;2023-05-25T05:32:48;94731.78;;;24.42;46.83
36932;BME280;22847;42.654;23.370;2023-05-25T05:35:13;94737.50;;;24.16;48.12
36932;BME280;22847;42.654;23.370;2023-05-25T05:37:39;94739.88;;;24.06;48.32
36932;BME280;22847;42.654;23.370;2023-05-25T05:40:05;94703.50;;;24.00;47.99
36932;BME280;22847;42.654;23.370;2023-05-25T05:42:31;94732.00;;;24.11;48.25
36932;BME280;22847;42.654;23.370;2023-05-25T05:44:57;94737.25;;;24.36;47.82
36932;BME280;22847;42.654;23.370;2023-05-25T05:47:22;94759.53;;;24.65;47.03
36932;BME280;22847;42.654;23.370;2023-05-25T05:49:47;94759.69;;;24.70;46.69
36932;BME280;22847;42.654;23.370;2023-05-25T05:52:13;94616.41;;;24.12;46.19
36932;BME280;22847;42.654;23.370;2023-05-25T05:54:38;94748.41;;;24.56;47.47
36932;BME280;22847;42.654;23.370;2023-05-25T05:57:04;94731.44;;;24.92;46.48
36932;BME280;22847;42.654;23.370;2023-05-25T05:59:30;94622.13;;;24.27;47.04
36932;BME280;22847;42.654;23.370;2023-05-25T06:01:56;94646.84;;;24.69;45.90
36932;BME280;22847;42.654;23.370;2023-05-25T06:04:21;94750.91;;;25.51;46.45
36932;BME280;22847;42.654;23.370;2023-05-25T06:06:49;94754.22;;;25.93;45.59
36932;BME280;22847;42.654;23.370;2023-05-25T06:09:15;94753.53;;;26.26;44.29
36932;BME280;22847;42.654;23.370;2023-05-25T06:11:40;94758.69;;;26.15;43.59
36932;BME280;22847;42.654;23.370;2023-05-25T06:14:06;94773.22;;;26.08;43.84
36932;BME280;22847;42.654;23.370;2023-05-25T06:16:31;94659.97;;;25.69;44.08
36932;BME280;22847;42.654;23.370;2023-05-25T06:18:57;94647.66;;;25.68;43.91
36932;BME280;22847;42.654;23.370;2023-05-25T06:21:22;94747.94;;;26.55;43.68
36932;BME280;22847;42.654;23.370;2023-05-25T06:23:48;94630.88;;;25.56;43.90
36932;BME280;22847;42.654;23.370;2023-05-25T06:26:13;94747.09;;;26.38;44.63
36932;BME280;22847;42.654;23.370;2023-05-25T06:28:38;94756.78;;;26.73;44.68
36932;BME280;22847;42.654;23.370;2023-05-25T06:31:05;94760.91;;;26.80;44.39
36932;BME280;22847;42.654;23.370;2023-05-25T06:33:30;94615.31;;;25.81;43.74
36932;BME280;22847;42.654;23.370;2023-05-25T06:35:56;94759.50;;;26.16;45.18
36932;BME280;22847;42.654;23.370;2023-05-25T06:38:27;94639.75;;;25.73;44.12
36932;BME280;22847;42.654;23.370;2023-05-25T06:40:53;94762.97;;;26.45;44.00
36932;BME280;22847;42.654;23.370;2023-05-25T06:43:19;94737.06;;;26.45;43.89
36932;BME280;22847;42.654;23.370;2023-05-25T06:45:45;94774.88;;;26.66;44.03
36932;BME280;22847;42.654;23.370;2023-05-25T06:48:10;94746.59;;;26.86;43.36
36932;BME280;22847;42.654;23.370;2023-05-25T06:50:36;94734.03;;;27.03;42.75
36932;BME280;22847;42.654;23.370;2023-05-25T06:53:01;94762.97;;;27.06;43.49
36932;BME280;22847;42.654;23.370;2023-05-25T06:55:27;94637.78;;;26.42;42.98
36932;BME280;22847;42.654;23.370;2023-05-25T06:57:53;94649.59;;;26.62;42.82
36932;BME280;22847;42.654;23.370;2023-05-25T07:00:18;94660.06;;;26.64;42.54
36932;BME280;22847;42.654;23.370;2023-05-25T07:02:45;94758.19;;;27.25;42.52
36932;BME280;22847;42.654;23.370;2023-05-25T07:05:11;94755.84;;;26.95;42.49
36932;BME280;22847;42.654;23.370;2023-05-25T07:07:36;94664.03;;;26.61;43.32
36932;BME280;22847;42.654;23.370;2023-05-25T07:10:02;94748.69;;;27.73;42.66
36932;BME280;22847;42.654;23.370;2023-05-25T07:12:28;94749.91;;;27.65;41.57
36932;BME280;22847;42.654;23.370;2023-05-25T07:14:53;94742.69;;;27.27;43.15
36932;BME280;22847;42.654;23.370;2023-05-25T07:17:19;94769.94;;;27.41;42.71
36932;BME280;22847;42.654;23.370;2023-05-25T07:19:46;94710.28;;;26.90;43.08
36932;BME280;22847;42.654;23.370;2023-05-25T07:22:12;94650.88;;;25.98;43.72
36932;BME280;22847;42.654;23.370;2023-05-25T07:24:39;94744.75;;;26.42;45.54
36932;BME280;22847;42.654;23.370;2023-05-25T07:27:05;94728.84;;;26.35;45.92
36932;BME280;22847;42.654;23.370;2023-05-25T07:29:31;94634.94;;;26.32;44.61
36932;BME280;22847;42.654;23.370;2023-05-25T07:31:56;94748.63;;;27.13;43.08
36932;BME280;22847;42.654;23.370;2023-05-25T07:34:21;94736.44;;;27.22;43.46
36932;BME280;22847;42.654;23.370;2023-05-25T07:36:47;94614.06;;;26.17;44.53
36932;BME280;22847;42.654;23.370;2023-05-25T07:39:12;94562.09;;;25.35;45.80
36932;BME280;22847;42.654;23.370;2023-05-25T07:41:38;94642.22;;;25.11;46.75
36932;BME280;22847;42.654;23.370;2023-05-25T07:44:03;94666.94;;;25.07;47.41
36932;BME280;22847;42.654;23.370;2023-05-25T07:46:29;94760.22;;;25.25;48.47
36932;BME280;22847;42.654;23.370;2023-05-25T07:48:55;94751.16;;;24.91;49.66
36932;BME280;22847;42.654;23.370;2023-05-25T07:51:22;94753.03;;;24.61;49.30
36932;BME280;22847;42.654;23.370;2023-05-25T07:53:50;94775.88;;;24.57;49.50
36932;BME280;22847;42.654;23.370;2023-05-25T07:56:16;94752.28;;;24.30;49.74
36932;BME280;22847;42.654;23.370;2023-05-25T07:58:42;94765.41;;;22.98;53.77
36932;BME280;22847;42.654;23.370;2023-05-25T08:01:07;94776.31;;;21.89;57.15
36932;BME280;22847;42.654;23.370;2023-05-25T08:03:32;94665.41;;;20.96;58.61
36932;BME280;22847;42.654;23.370;2023-05-25T08:05:58;94763.19;;;21.50;59.09
36932;BME280;22847;42.654;23.370;2023-05-25T08:08:23;94801.72;;;20.21;63.86
36932;BME280;22847;42.654;23.370;2023-05-25T08:10:49;94768.28;;;20.07;64.75
36932;BME280;22847;42.654;23.370;2023-05-25T08:13:14;94791.59;;;21.03;62.50
36932;BME280;22847;42.654;23.370;2023-05-25T08:15:40;94776.13;;;21.13;61.97
36932;BME280;22847;42.654;23.370;2023-05-25T08:18:05;94537.16;;;19.47;61.64
36932;BME280;22847;42.654;23.370;2023-05-25T08:20:31;94804.88;;;20.90;62.85
36932;BME280;22847;42.654;23.370;2023-05-25T08:22:56;94825.69;;;21.13;61.82
36932;BME280;22847;42.654;23.370;2023-05-25T08:25:23;94809.19;;;21.24;61.81
36932;BME280;22847;42.654;23.370;2023-05-25T08:27:48;94814.66;;;21.42;60.07
36932;BME280;22847;42.654;23.370;2023-05-25T08:30:14;94677.09;;;20.48;60.77
36932;BME280;22847;42.654;23.370;2023-05-25T08:32:40;94809.16;;;21.30;60.71
36932;BME280;22847;42.654;23.370;2023-05-25T08:35:05;94834.47;;;21.07;61.73
36932;BME280;22847;42.654;23.370;2023-05-25T08:37:32;94783.84;;;20.49;62.64
36932;BME280;22847;42.654;23.370;2023-05-25T08:39:58;94821.63;;;20.97;62.75
36932;BME280;22847;42.654;23.370;2023-05-25T08:42:26;94847.09;;;20.78;63.45
36932;BME280;22847;42.654;23.370;2023-05-25T08:44:52;94728.38;;;20.01;64.82
36932;BME280;22847;42.654;23.370;2023-05-25T08:47:21;94810.78;;;20.59;65.14
36932;BME280;22847;42.654;23.370;2023-05-25T08:49:47;94845.44;;;20.77;64.83
36932;BME280;22847;42.654;23.370;2023-05-25T08:52:13;94851.59;;;20.71;63.71
36932;BME280;22847;42.654;23.370;2023-05-25T08:54:42;94483.75;;;18.37;64.98
36932;BME280;22847;42.654;23.370;2023-05-25T08:58:05;94847.69;;;20.80;65.65
36932;BME280;22847;42.654;23.370;2023-05-25T09:00:35;94704.72;;;19.80;65.68
36932;BME280;22847;42.654;23.370;2023-05-25T09:03:08;94816.38;;;20.23;66.98
36932;BME280;22847;42.654;23.370;2023-05-25T09:05:35;94869.94;;;20.79;65.58
36932;BME280;22847;42.654;23.370;2023-05-25T09:08:03;94876.47;;;20.83;67.33
36932;BME280;22847;42.654;23.370;2023-05-25T09:10:32;94842.59;;;20.72;68.11
36932;BME280;22847;42.654;23.370;2023-05-25T09:12:59;94815.66;;;20.56;67.01
36932;BME280;22847;42.654;23.370;2023-05-25T09:15:25;94876.06;;;21.00;68.53
36932;BME280;22847;42.654;23.370;2023-05-25T09:17:53;94874.63;;;21.04;69.64
36932;BME280;22847;42.654;23.370;2023-05-25T09:20:23;94805.88;;;20.49;69.14
36932;BME280;22847;42.654;23.370;2023-05-25T09:22:49;94708.81;;;19.89;68.69
36932;BME280;22847;42.654;23.370;2023-05-25T09:25:18;94798.06;;;20.28;69.48
36932;BME280;22847;42.654;23.370;2023-05-25T09:27:47;94883.66;;;21.16;69.17
36932;BME280;22847;42.654;23.370;2023-05-25T09:30:13;94861.56;;;21.09;68.24
36932;BME280;22847;42.654;23.370;2023-05-25T09:32:39;94876.88;;;21.00;68.55
36932;BME280;22847;42.654;23.370;2023-05-25T09:35:09;94855.06;;;21.11;66.42
36932;BME280;22847;42.654;23.370;2023-05-25T09:41:03;94846.47;;;21.09;67.52
36932;BME280;22847;42.654;23.370;2023-05-25T09:43:31;94823.84;;;20.80;68.34
36932;BME280;22847;42.654;23.370;2023-05-25T09:45:56;94831.59;;;21.08;68.03
36932;BME280;22847;42.654;23.370;2023-05-25T09:48:22;94729.88;;;20.57;66.97
36932;BME280;22847;42.654;23.370;2023-05-25T09:50:48;94833.66;;;21.19;67.70
36932;BME280;22847;42.654;23.370;2023-05-25T09:53:13;94848.97;;;21.24;68.28
36932;BME280;22847;42.654;23.370;2023-05-25T09:55:39;94825.66;;;21.46;67.96
36932;BME280;22847;42.654;23.370;2023-05-25T09:58:05;94858.69;;;21.69;67.76
36932;BME280;22847;42.654;23.370;2023-05-25T10:00:31;94687.81;;;21.00;67.70
36932;BME280;22847;42.654;23.370;2023-05-25T10:02:58;94781.47;;;21.71;64.42
36932;BME280;22847;42.654;23.370;2023-05-25T10:05:24;94829.84;;;21.79;66.01
36932;BME280;22847;42.654;23.370;2023-05-25T10:07:50;94800.63;;;21.86;64.66
36932;BME280;22847;42.654;23.370;2023-05-25T10:10:17;94827.34;;;22.04;66.59
36932;BME280;22847;42.654;23.370;2023-05-25T10:12:44;94835.50;;;22.03;66.92
36932;BME280;22847;42.654;23.370;2023-05-25T10:15:13;94829.00;;;21.99;66.88
36932;BME280;22847;42.654;23.370;2023-05-25T10:18:08;94807.13;;;22.41;63.36
36932;BME280;22847;42.654;23.370;2023-05-25T10:20:33;94810.84;;;22.65;60.51
36932;BME280;22847;42.654;23.370;2023-05-25T10:23:12;94789.91;;;22.19;60.41
36932;BME280;22847;42.654;23.370;2023-05-25T10:25:43;94803.66;;;22.03;64.19
36932;BME280;22847;42.654;23.370;2023-05-25T10:28:25;94803.91;;;22.33;63.16
36932;BME280;22847;42.654;23.370;2023-05-25T10:30:52;94797.69;;;22.45;63.52
36932;BME280;22847;42.654;23.370;2023-05-25T10:33:20;94792.13;;;22.53;63.16
36932;BME280;22847;42.654;23.370;2023-05-25T10:35:45;94760.97;;;22.36;62.15
36932;BME280;22847;42.654;23.370;2023-05-25T10:38:13;94778.66;;;22.48;62.16
36932;BME280;22847;42.654;23.370;2023-05-25T10:40:39;94770.97;;;22.40;61.92
36932;BME280;22847;42.654;23.370;2023-05-25T10:43:05;94640.59;;;21.34;63.01
36932;BME280;22847;42.654;23.370;2023-05-25T10:45:31;94771.31;;;22.12;63.94
36932;BME280;22847;42.654;23.370;2023-05-25T10:47:57;94742.63;;;22.28;62.50
36932;BME280;22847;42.654;23.370;2023-05-25T10:50:26;94768.00;;;22.23;64.43
36932;BME280;22847;42.654;23.370;2023-05-25T10:53:05;94683.13;;;22.04;62.68
36932;BME280;22847;42.654;23.370;2023-05-25T10:58:19;94638.63;;;21.17;63.96
36932;BME280;22847;42.654;23.370;2023-05-25T11:01:08;94751.47;;;21.70;65.25
36932;BME280;22847;42.654;23.370;2023-05-25T11:06:18;94762.81;;;21.91;63.65
36932;BME280;22847;42.654;23.370;2023-05-25T11:08:59;94736.41;;;21.58;65.30
36932;BME280;22847;42.654;23.370;2023-05-25T11:14:29;94753.94;;;22.16;62.40
36932;BME280;22847;42.654;23.370;2023-05-25T11:17:04;94761.59;;;21.93;64.13
36932;BME280;22847;42.654;23.370;2023-05-25T11:19:41;94753.03;;;22.29;64.04
36932;BME280;22847;42.654;23.370;2023-05-25T11:22:19;94621.06;;;21.29;65.19
36932;BME280;22847;42.654;23.370;2023-05-25T11:24:50;94620.28;;;21.53;64.15
36932;BME280;22847;42.654;23.370;2023-05-25T11:27:23;94758.78;;;22.57;61.62
36932;BME280;22847;42.654;23.370;2023-05-25T11:29:50;94760.06;;;22.48;61.75
36932;BME280;22847;42.654;23.370;2023-05-25T11:32:16;94644.72;;;21.68;61.53
36932;BME280;22847;42.654;23.370;2023-05-25T11:34:41;94778.41;;;22.56;60.75
36932;BME280;22847;42.654;23.370;2023-05-25T11:37:16;94686.69;;;22.22;59.64
36932;BME280;22847;42.654;23.370;2023-05-25T11:39:49;94633.28;;;21.68;60.22
36932;BME280;22847;42.654;23.370;2023-05-25T11:42:16;94753.56;;;22.44;59.36
36932;BME280;22847;42.654;23.370;2023-05-25T11:44:43;94729.78;;;22.56;58.08
36932;BME280;22847;42.654;23.370;2023-05-25T11:47:10;94746.06;;;22.35;59.76
36932;BME280;22847;42.654;23.370;2023-05-25T11:49:42;94681.94;;;22.00;60.59
36932;BME280;22847;42.654;23.370;2023-05-25T11:52:13;94654.19;;;21.89;60.87
36932;BME280;22847;42.654;23.370;2023-05-25T11:54:39;94753.06;;;22.54;62.48
36932;BME280;22847;42.654;23.370;2023-05-25T11:57:13;94745.50;;;22.26;61.97
36932;BME280;22847;42.654;23.370;2023-05-25T11:59:39;94606.91;;;21.42;61.89
36932;BME280;22847;42.654;23.370;2023-05-25T12:02:05;94750.31;;;22.42;60.85
36932;BME280;22847;42.654;23.370;2023-05-25T12:04:32;94747.41;;;22.75;59.86
36932;BME280;22847;42.654;23.370;2023-05-25T12:07:05;94745.78;;;22.99;59.57
36932;BME280;22847;42.654;23.370;2023-05-25T12:09:31;94751.25;;;23.04;60.84
36932;BME280;22847;42.654;23.370;2023-05-25T12:11:57;94578.03;;;22.14;59.39
36932;BME280;22847;42.654;23.370;2023-05-25T12:14:23;94731.94;;;23.51;58.33
36932;BME280;22847;42.654;23.370;2023-05-25T12:16:49;94735.34;;;23.77;56.46
36932;BME280;22847;42.654;23.370;2023-05-25T12:19:15;94748.38;;;23.67;55.04
36932;BME280;22847;42.654;23.370;2023-05-25T12:21:41;94737.72;;;23.48;56.02
36932;BME280;22847;42.654;23.370;2023-05-25T12:24:09;94597.50;;;22.76;56.61
36932;BME280;22847;42.654;23.370;2023-05-25T12:26:50;94605.47;;;22.94;56.17
36932;BME280;22847;42.654;23.370;2023-05-25T12:29:21;94594.47;;;23.09;54.24
36932;BME280;22847;42.654;23.370;2023-05-25T12:31:47;94719.09;;;23.48;55.38
36932;BME280;22847;42.654;23.370;2023-05-25T12:34:14;94673.91;;;23.05;56.91
36932;BME280;22847;42.654;23.370;2023-05-25T12:36:44;94705.66;;;23.73;55.55
36932;BME280;22847;42.654;23.370;2023-05-25T12:39:12;94701.59;;;23.89;54.15
36932;BME280;22847;42.654;23.370;2023-05-25T12:41:47;94597.44;;;23.01;51.96
36932;BME280;22847;42.654;23.370;2023-05-25T12:44:33;94572.94;;;23.10;53.86
36932;BME280;22847;42.654;23.370;2023-05-25T12:47:15;94704.63;;;24.22;52.30
36932;BME280;22847;42.654;23.370;2023-05-25T12:49:43;94481.41;;;23.18;52.20
36932;BME280;22847;42.654;23.370;2023-05-25T12:52:10;94646.22;;;24.21;51.20
36932;BME280;22847;42.654;23.370;2023-05-25T12:54:43;94546.38;;;23.70;50.24
36932;BME280;22847;42.654;23.370;2023-05-25T12:57:13;94668.94;;;24.23;50.17
36932;BME280;22847;42.654;23.370;2023-05-25T12:59:44;94673.13;;;24.01;50.08
36932;BME280;22847;42.654;23.370;2023-05-25T13:02:10;94635.84;;;24.01;49.36
36932;BME280;22847;42.654;23.370;2023-05-25T13:04:37;94651.25;;;24.11;49.91